Ely Municipal Airport
KELO : rendu visible

Aérodrome :











RETROUVEZ-NOUS SUR...

 
LOGIN :

S'inscrire | Disclaimer

   EN    FR    IT 

 









Légende :    VFR   VFR Marginal   IFR   IFR Intensif   IFR Très Intensif
Visi : 
Plafond : 
>= 8 km
>= 3000ft
5 à 8 km
1000 à 3000 ft
1500m à 5 km
500 à 1000 ft
800 à 1500m
200 à 500 ft
< 800m
< 200 ft
Symboles :   Orages  Brouillard  Fortes neiges  Fortes précipitations  Vent > 20 kt







- Altitude de l'aérodrome : 1456 ft


KELO - Ely Municipal

DERNIER METAR :
  • 210218Z AUTO 13008KT 10SM SCT010 BKN042 BKN047 17/16 A2999 RMK AO2

METARs EXPIRÉS :
  • 210155Z AUTO 14010KT 10SM BKN039 OVC047 18/16 A3000 RMK AO2
  • 210136Z AUTO 13012KT 10SM BKN039 18/15 A3000 RMK AO2
  • 210115Z AUTO 13010KT 10SM SCT041 18/16 A3000 RMK AO2
  • 210038Z AUTO 14009KT 10SM CLR 19/16 A3000 RMK AO2
  • 210018Z AUTO 13007KT 10SM CLR 20/17 A3000 RMK AO2
  • 202356Z AUTO 14008KT 10SM CLR 21/17 A3001 RMK AO2
  • 202355Z AUTO 14008KT 10SM CLR 21/17 A3001 RMK AO2
  • 202336Z AUTO 13008KT 10SM CLR 22/17 A3001 RMK AO2

TAF N/A
Pas de NOTAMs connus pour ce terrain.



MET'MAP, la Météo Aéronautique d'un coup d'oeil ! - Copyright ORBIFLY Décembre 2007 - Disclaimer

ORBIFLY MET'MAP TEAM :

Programmation & Développement : Alexandra Zaïnal
Conception & Développement : Baudouin d'Aumeries
Co-Programmation & Développement : Marc-Olivier Méhu
Soutien technique & logistique : Manuel Goepfert

Contact : metmap@orbifly.com




SOURCES & CREDITS :

   NOAA       Earth
Advisory